sensor_id;sensor_type;location;lat;lon;timestamp;temperature;humidity
4701;DHT22;8724;51.272;6.554;2023-06-26T00:00:12;27.80;99.90
4701;DHT22;8724;51.272;6.554;2023-06-26T00:02:40;27.80;99.90
4701;DHT22;8724;51.272;6.554;2023-06-26T00:05:09;27.80;99.90
4701;DHT22;8724;51.272;6.554;2023-06-26T00:07:37;27.70;99.90
4701;DHT22;8724;51.272;6.554;2023-06-26T00:10:07;27.70;99.90
4701;DHT22;8724;51.272;6.554;2023-06-26T00:12:35;27.70;99.90
4701;DHT22;8724;51.272;6.554;2023-06-26T00:15:06;27.70;99.90
4701;DHT22;8724;51.272;6.554;2023-06-26T00:17:35;27.70;99.90
4701;DHT22;8724;51.272;6.554;2023-06-26T00:20:05;27.60;99.90
4701;DHT22;8724;51.272;6.554;2023-06-26T00:22:38;27.70;99.90
4701;DHT22;8724;51.272;6.554;2023-06-26T00:25:08;27.60;99.90
4701;DHT22;8724;51.272;6.554;2023-06-26T00:27:36;27.50;99.90
4701;DHT22;8724;51.272;6.554;2023-06-26T00:30:07;27.60;99.90
4701;DHT22;8724;51.272;6.554;2023-06-26T00:32:36;27.50;99.90
4701;DHT22;8724;51.272;6.554;2023-06-26T00:35:05;27.50;99.90
4701;DHT22;8724;51.272;6.554;2023-06-26T00:37:34;27.50;99.90
4701;DHT22;8724;51.272;6.554;2023-06-26T00:40:02;27.50;99.90
4701;DHT22;8724;51.272;6.554;2023-06-26T00:42:32;27.50;99.90
4701;DHT22;8724;51.272;6.554;2023-06-26T00:45:01;27.40;99.90
4701;DHT22;8724;51.272;6.554;2023-06-26T00:47:31;27.40;99.90
4701;DHT22;8724;51.272;6.554;2023-06-26T00:50:00;27.40;99.90
4701;DHT22;8724;51.272;6.554;2023-06-26T00:52:29;27.30;99.90
4701;DHT22;8724;51.272;6.554;2023-06-26T00:54:59;27.30;99.90
4701;DHT22;8724;51.272;6.554;2023-06-26T00:57:27;27.30;99.90
4701;DHT22;8724;51.272;6.554;2023-06-26T00:59:56;27.30;99.90
4701;DHT22;8724;51.272;6.554;2023-06-26T01:02:25;27.30;99.90
4701;DHT22;8724;51.272;6.554;2023-06-26T01:05:02;27.20;99.90
4701;DHT22;8724;51.272;6.554;2023-06-26T01:07:35;27.20;99.90
4701;DHT22;8724;51.272;6.554;2023-06-26T01:10:05;27.20;99.90
4701;DHT22;8724;51.272;6.554;2023-06-26T01:12:34;27.20;99.90
4701;DHT22;8724;51.272;6.554;2023-06-26T01:15:03;27.20;99.90
4701;DHT22;8724;51.272;6.554;2023-06-26T01:17:32;27.10;99.90
4701;DHT22;8724;51.272;6.554;2023-06-26T01:20:04;27.10;99.90
4701;DHT22;8724;51.272;6.554;2023-06-26T01:22:39;27.10;99.90
4701;DHT22;8724;51.272;6.554;2023-06-26T01:25:18;27.10;99.90
4701;DHT22;8724;51.272;6.554;2023-06-26T01:27:50;27.10;99.90
4701;DHT22;8724;51.272;6.554;2023-06-26T01:30:21;27.10;99.90
4701;DHT22;8724;51.272;6.554;2023-06-26T01:32:50;27.00;99.90
4701;DHT22;8724;51.272;6.554;2023-06-26T01:35:21;27.00;99.90
4701;DHT22;8724;51.272;6.554;2023-06-26T01:37:50;27.00;99.90
4701;DHT22;8724;51.272;6.554;2023-06-26T01:40:18;27.00;99.90
4701;DHT22;8724;51.272;6.554;2023-06-26T01:42:46;27.00;99.90
4701;DHT22;8724;51.272;6.554;2023-06-26T01:45:23;27.00;99.90
4701;DHT22;8724;51.272;6.554;2023-06-26T01:47:52;27.00;99.90
4701;DHT22;8724;51.272;6.554;2023-06-26T01:50:23;27.00;99.90
4701;DHT22;8724;51.272;6.554;2023-06-26T01:52:57;26.90;99.90
4701;DHT22;8724;51.272;6.554;2023-06-26T01:55:32;26.90;99.90
4701;DHT22;8724;51.272;6.554;2023-06-26T01:58:03;26.90;99.90
4701;DHT22;8724;51.272;6.554;2023-06-26T02:00:34;26.90;99.90
4701;DHT22;8724;51.272;6.554;2023-06-26T02:03:03;26.90;99.90
4701;DHT22;8724;51.272;6.554;2023-06-26T02:05:33;26.90;99.90
4701;DHT22;8724;51.272;6.554;2023-06-26T02:08:03;26.90;99.90
4701;DHT22;8724;51.272;6.554;2023-06-26T02:10:32;26.80;99.90
4701;DHT22;8724;51.272;6.554;2023-06-26T02:13:01;26.80;99.90
4701;DHT22;8724;51.272;6.554;2023-06-26T02:15:29;26.80;99.90
4701;DHT22;8724;51.272;6.554;2023-06-26T02:17:59;26.80;99.90
4701;DHT22;8724;51.272;6.554;2023-06-26T02:20:27;26.80;99.90
4701;DHT22;8724;51.272;6.554;2023-06-26T02:22:56;26.80;99.90
4701;DHT22;8724;51.272;6.554;2023-06-26T02:25:24;26.80;99.90
4701;DHT22;8724;51.272;6.554;2023-06-26T02:27:52;26.70;99.90
4701;DHT22;8724;51.272;6.554;2023-06-26T02:30:21;26.70;99.90
4701;DHT22;8724;51.272;6.554;2023-06-26T02:32:50;26.70;99.90
4701;DHT22;8724;51.272;6.554;2023-06-26T02:35:20;26.70;99.90
4701;DHT22;8724;51.272;6.554;2023-06-26T02:37:48;26.70;99.90
4701;DHT22;8724;51.272;6.554;2023-06-26T02:40:17;26.60;99.90
4701;DHT22;8724;51.272;6.554;2023-06-26T02:42:45;26.70;99.90
4701;DHT22;8724;51.272;6.554;2023-06-26T02:45:14;26.70;99.90
4701;DHT22;8724;51.272;6.554;2023-06-26T02:47:42;26.60;99.90
4701;DHT22;8724;51.272;6.554;2023-06-26T02:50:11;26.60;99.90
4701;DHT22;8724;51.272;6.554;2023-06-26T02:53:01;26.60;99.90
4701;DHT22;8724;51.272;6.554;2023-06-26T02:55:29;26.60;99.90
4701;DHT22;8724;51.272;6.554;2023-06-26T02:57:57;26.60;99.90
4701;DHT22;8724;51.272;6.554;2023-06-26T03:00:26;26.50;99.90
4701;DHT22;8724;51.272;6.554;2023-06-26T03:03:00;26.50;99.90
4701;DHT22;8724;51.272;6.554;2023-06-26T03:05:28;26.50;99.90
4701;DHT22;8724;51.272;6.554;2023-06-26T03:08:00;26.50;99.90
4701;DHT22;8724;51.272;6.554;2023-06-26T03:10:28;26.40;99.90
4701;DHT22;8724;51.272;6.554;2023-06-26T03:12:57;26.40;99.90
4701;DHT22;8724;51.272;6.554;2023-06-26T03:15:26;26.40;99.90
4701;DHT22;8724;51.272;6.554;2023-06-26T03:17:54;26.40;99.90
4701;DHT22;8724;51.272;6.554;2023-06-26T03:20:26;26.40;99.90
4701;DHT22;8724;51.272;6.554;2023-06-26T03:22:56;26.40;99.90
4701;DHT22;8724;51.272;6.554;2023-06-26T03:25:26;26.30;99.90
4701;DHT22;8724;51.272;6.554;2023-06-26T03:28:24;26.30;99.90
4701;DHT22;8724;51.272;6.554;2023-06-26T03:30:52;26.30;99.90
4701;DHT22;8724;51.272;6.554;2023-06-26T03:33:20;26.30;99.90
4701;DHT22;8724;51.272;6.554;2023-06-26T03:35:49;26.30;99.90
4701;DHT22;8724;51.272;6.554;2023-06-26T03:38:17;26.30;99.90
4701;DHT22;8724;51.272;6.554;2023-06-26T03:40:48;26.20;99.90
4701;DHT22;8724;51.272;6.554;2023-06-26T03:43:16;26.20;99.90
4701;DHT22;8724;51.272;6.554;2023-06-26T03:46:05;26.20;99.90
4701;DHT22;8724;51.272;6.554;2023-06-26T03:48:34;26.10;99.90
4701;DHT22;8724;51.272;6.554;2023-06-26T03:51:02;26.10;99.90
4701;DHT22;8724;51.272;6.554;2023-06-26T03:53:31;26.00;99.90
4701;DHT22;8724;51.272;6.554;2023-06-26T03:56:00;26.00;99.90
4701;DHT22;8724;51.272;6.554;2023-06-26T03:58:29;26.00;99.90
4701;DHT22;8724;51.272;6.554;2023-06-26T04:00:57;26.00;99.90
4701;DHT22;8724;51.272;6.554;2023-06-26T04:03:26;26.00;99.90
4701;DHT22;8724;51.272;6.554;2023-06-26T04:05:54;26.00;99.90
4701;DHT22;8724;51.272;6.554;2023-06-26T04:08:24;26.00;99.90
4701;DHT22;8724;51.272;6.554;2023-06-26T04:10:53;26.00;99.90
4701;DHT22;8724;51.272;6.554;2023-06-26T04:13:25;26.00;99.90
4701;DHT22;8724;51.272;6.554;2023-06-26T04:15:54;26.00;99.90
4701;DHT22;8724;51.272;6.554;2023-06-26T04:18:22;25.90;99.90
4701;DHT22;8724;51.272;6.554;2023-06-26T04:21:07;25.90;99.90
4701;DHT22;8724;51.272;6.554;2023-06-26T04:23:44;25.80;99.90
4701;DHT22;8724;51.272;6.554;2023-06-26T04:26:14;25.80;99.90
4701;DHT22;8724;51.272;6.554;2023-06-26T04:28:42;25.70;99.90
4701;DHT22;8724;51.272;6.554;2023-06-26T04:31:11;25.70;99.90
4701;DHT22;8724;51.272;6.554;2023-06-26T04:33:39;25.70;99.90
4701;DHT22;8724;51.272;6.554;2023-06-26T04:36:09;25.70;99.90
4701;DHT22;8724;51.272;6.554;2023-06-26T04:38:38;25.70;99.90
4701;DHT22;8724;51.272;6.554;2023-06-26T04:41:08;25.70;99.90
4701;DHT22;8724;51.272;6.554;2023-06-26T04:43:36;25.70;99.90
4701;DHT22;8724;51.272;6.554;2023-06-26T04:46:05;25.70;99.90
4701;DHT22;8724;51.272;6.554;2023-06-26T04:48:34;25.70;99.90
4701;DHT22;8724;51.272;6.554;2023-06-26T04:51:03;25.70;99.90
4701;DHT22;8724;51.272;6.554;2023-06-26T04:53:31;25.70;99.90
4701;DHT22;8724;51.272;6.554;2023-06-26T04:55:59;25.70;99.90
4701;DHT22;8724;51.272;6.554;2023-06-26T04:58:30;25.70;99.90
4701;DHT22;8724;51.272;6.554;2023-06-26T05:00:58;25.60;99.90
4701;DHT22;8724;51.272;6.554;2023-06-26T05:03:29;25.60;99.90
4701;DHT22;8724;51.272;6.554;2023-06-26T05:05:58;25.60;99.90
4701;DHT22;8724;51.272;6.554;2023-06-26T05:08:31;25.50;99.90
4701;DHT22;8724;51.272;6.554;2023-06-26T05:11:00;25.50;99.90
4701;DHT22;8724;51.272;6.554;2023-06-26T05:13:30;25.50;99.90
4701;DHT22;8724;51.272;6.554;2023-06-26T05:15:58;25.50;99.90
4701;DHT22;8724;51.272;6.554;2023-06-26T05:18:27;25.40;99.90
4701;DHT22;8724;51.272;6.554;2023-06-26T05:20:56;25.50;99.90
4701;DHT22;8724;51.272;6.554;2023-06-26T05:23:25;25.50;99.90
4701;DHT22;8724;51.272;6.554;2023-06-26T05:25:54;25.40;99.90
4701;DHT22;8724;51.272;6.554;2023-06-26T05:28:23;25.40;99.90
4701;DHT22;8724;51.272;6.554;2023-06-26T05:30:55;25.40;99.90
4701;DHT22;8724;51.272;6.554;2023-06-26T05:33:25;25.30;99.90
4701;DHT22;8724;51.272;6.554;2023-06-26T05:35:55;25.30;99.90
4701;DHT22;8724;51.272;6.554;2023-06-26T05:38:24;25.30;99.90
4701;DHT22;8724;51.272;6.554;2023-06-26T05:40:53;25.20;99.90
4701;DHT22;8724;51.272;6.554;2023-06-26T05:43:22;25.20;99.90
4701;DHT22;8724;51.272;6.554;2023-06-26T05:45:56;25.20;99.90
4701;DHT22;8724;51.272;6.554;2023-06-26T05:48:25;25.20;99.90
4701;DHT22;8724;51.272;6.554;2023-06-26T05:50:54;25.20;99.90
4701;DHT22;8724;51.272;6.554;2023-06-26T05:53:23;25.20;99.90
4701;DHT22;8724;51.272;6.554;2023-06-26T05:55:52;25.20;99.90
4701;DHT22;8724;51.272;6.554;2023-06-26T05:58:21;25.20;99.90
4701;DHT22;8724;51.272;6.554;2023-06-26T06:00:51;25.20;99.90
4701;DHT22;8724;51.272;6.554;2023-06-26T06:03:21;25.20;99.90
4701;DHT22;8724;51.272;6.554;2023-06-26T06:05:49;25.20;99.90
4701;DHT22;8724;51.272;6.554;2023-06-26T06:08:18;25.20;99.90
4701;DHT22;8724;51.272;6.554;2023-06-26T06:10:46;25.10;99.90
4701;DHT22;8724;51.272;6.554;2023-06-26T06:13:15;25.10;99.90
4701;DHT22;8724;51.272;6.554;2023-06-26T06:15:43;25.10;99.90
4701;DHT22;8724;51.272;6.554;2023-06-26T06:18:12;25.10;99.90
4701;DHT22;8724;51.272;6.554;2023-06-26T06:20:41;25.10;99.90
4701;DHT22;8724;51.272;6.554;2023-06-26T06:23:10;25.00;99.90
4701;DHT22;8724;51.272;6.554;2023-06-26T06:25:38;25.00;99.90
4701;DHT22;8724;51.272;6.554;2023-06-26T06:28:07;25.00;99.90
4701;DHT22;8724;51.272;6.554;2023-06-26T06:30:35;25.00;99.90
4701;DHT22;8724;51.272;6.554;2023-06-26T06:33:06;24.90;99.90
4701;DHT22;8724;51.272;6.554;2023-06-26T06:35:35;24.90;99.90
4701;DHT22;8724;51.272;6.554;2023-06-26T06:38:05;24.80;99.90
4701;DHT22;8724;51.272;6.554;2023-06-26T06:40:33;24.80;99.90
4701;DHT22;8724;51.272;6.554;2023-06-26T06:43:02;24.70;99.90
4701;DHT22;8724;51.272;6.554;2023-06-26T06:45:30;24.70;99.90
4701;DHT22;8724;51.272;6.554;2023-06-26T06:47:58;24.80;99.90
4701;DHT22;8724;51.272;6.554;2023-06-26T06:50:27;24.80;99.90
4701;DHT22;8724;51.272;6.554;2023-06-26T06:52:56;24.80;99.90
4701;DHT22;8724;51.272;6.554;2023-06-26T06:55:25;24.80;99.90
4701;DHT22;8724;51.272;6.554;2023-06-26T06:57:54;24.80;99.90
4701;DHT22;8724;51.272;6.554;2023-06-26T07:00:22;24.80;99.90
4701;DHT22;8724;51.272;6.554;2023-06-26T07:02:51;24.80;99.90
4701;DHT22;8724;51.272;6.554;2023-06-26T07:05:19;24.90;99.90
4701;DHT22;8724;51.272;6.554;2023-06-26T07:07:47;24.80;99.90
4701;DHT22;8724;51.272;6.554;2023-06-26T07:10:16;24.80;99.90
4701;DHT22;8724;51.272;6.554;2023-06-26T07:12:46;24.80;99.90
4701;DHT22;8724;51.272;6.554;2023-06-26T07:15:14;24.70;99.90
4701;DHT22;8724;51.272;6.554;2023-06-26T07:17:42;24.80;99.90
4701;DHT22;8724;51.272;6.554;2023-06-26T07:20:11;24.80;99.90
4701;DHT22;8724;51.272;6.554;2023-06-26T07:22:43;24.80;99.90
4701;DHT22;8724;51.272;6.554;2023-06-26T07:25:12;24.80;99.90
4701;DHT22;8724;51.272;6.554;2023-06-26T07:27:41;24.80;99.90
4701;DHT22;8724;51.272;6.554;2023-06-26T07:30:12;24.80;99.90
4701;DHT22;8724;51.272;6.554;2023-06-26T07:32:40;24.80;99.90
4701;DHT22;8724;51.272;6.554;2023-06-26T07:35:09;24.80;99.90
4701;DHT22;8724;51.272;6.554;2023-06-26T07:37:38;24.70;99.90
4701;DHT22;8724;51.272;6.554;2023-06-26T07:40:09;24.70;99.90
4701;DHT22;8724;51.272;6.554;2023-06-26T07:42:38;24.60;99.90
4701;DHT22;8724;51.272;6.554;2023-06-26T07:45:08;24.70;99.90
4701;DHT22;8724;51.272;6.554;2023-06-26T07:47:41;24.70;99.90
4701;DHT22;8724;51.272;6.554;2023-06-26T07:50:09;24.70;99.90
4701;DHT22;8724;51.272;6.554;2023-06-26T07:52:38;24.70;99.90
4701;DHT22;8724;51.272;6.554;2023-06-26T07:55:06;24.80;99.90
4701;DHT22;8724;51.272;6.554;2023-06-26T07:57:35;24.80;99.90
4701;DHT22;8724;51.272;6.554;2023-06-26T08:00:04;24.80;99.90
4701;DHT22;8724;51.272;6.554;2023-06-26T08:02:41;24.80;99.90
4701;DHT22;8724;51.272;6.554;2023-06-26T08:05:09;24.80;99.90
4701;DHT22;8724;51.272;6.554;2023-06-26T08:07:38;24.80;99.90
4701;DHT22;8724;51.272;6.554;2023-06-26T08:10:07;24.70;99.90
4701;DHT22;8724;51.272;6.554;2023-06-26T08:12:35;24.70;99.90
4701;DHT22;8724;51.272;6.554;2023-06-26T08:15:08;24.60;99.90
4701;DHT22;8724;51.272;6.554;2023-06-26T08:17:37;24.60;99.90
4701;DHT22;8724;51.272;6.554;2023-06-26T08:20:08;24.60;99.90
4701;DHT22;8724;51.272;6.554;2023-06-26T08:22:37;24.60;99.90
4701;DHT22;8724;51.272;6.554;2023-06-26T08:25:06;24.70;99.90
4701;DHT22;8724;51.272;6.554;2023-06-26T08:27:35;24.70;99.90
4701;DHT22;8724;51.272;6.554;2023-06-26T08:30:04;24.70;99.90
4701;DHT22;8724;51.272;6.554;2023-06-26T08:32:32;24.70;99.90
4701;DHT22;8724;51.272;6.554;2023-06-26T08:35:01;24.70;99.90
4701;DHT22;8724;51.272;6.554;2023-06-26T08:37:31;24.70;99.90
4701;DHT22;8724;51.272;6.554;2023-06-26T08:40:00;24.70;99.90
4701;DHT22;8724;51.272;6.554;2023-06-26T08:42:28;24.70;99.90
4701;DHT22;8724;51.272;6.554;2023-06-26T08:44:57;24.70;99.90
4701;DHT22;8724;51.272;6.554;2023-06-26T08:47:30;24.80;99.90
4701;DHT22;8724;51.272;6.554;2023-06-26T08:50:04;24.80;99.90
4701;DHT22;8724;51.272;6.554;2023-06-26T08:52:42;24.80;99.90
4701;DHT22;8724;51.272;6.554;2023-06-26T08:55:12;24.70;99.90
4701;DHT22;8724;51.272;6.554;2023-06-26T08:57:43;24.80;99.90
4701;DHT22;8724;51.272;6.554;2023-06-26T09:00:15;24.70;99.90
4701;DHT22;8724;51.272;6.554;2023-06-26T09:02:45;24.70;99.90
4701;DHT22;8724;51.272;6.554;2023-06-26T09:05:14;24.70;99.90
4701;DHT22;8724;51.272;6.554;2023-06-26T09:07:44;24.80;99.90
4701;DHT22;8724;51.272;6.554;2023-06-26T09:10:12;24.80;99.90
4701;DHT22;8724;51.272;6.554;2023-06-26T09:12:41;24.80;99.90
4701;DHT22;8724;51.272;6.554;2023-06-26T09:15:14;24.80;99.90
4701;DHT22;8724;51.272;6.554;2023-06-26T09:17:44;24.80;99.90
4701;DHT22;8724;51.272;6.554;2023-06-26T09:20:12;24.80;99.90
4701;DHT22;8724;51.272;6.554;2023-06-26T09:22:42;24.80;99.90
4701;DHT22;8724;51.272;6.554;2023-06-26T09:25:12;24.80;99.90
4701;DHT22;8724;51.272;6.554;2023-06-26T09:27:43;24.80;99.90
4701;DHT22;8724;51.272;6.554;2023-06-26T09:30:12;24.80;99.90
4701;DHT22;8724;51.272;6.554;2023-06-26T09:32:45;24.80;99.90
4701;DHT22;8724;51.272;6.554;2023-06-26T09:35:14;24.70;99.90
4701;DHT22;8724;51.272;6.554;2023-06-26T09:37:43;24.80;99.90
4701;DHT22;8724;51.272;6.554;2023-06-26T09:40:13;24.80;99.90
4701;DHT22;8724;51.272;6.554;2023-06-26T09:42:43;24.80;99.90
4701;DHT22;8724;51.272;6.554;2023-06-26T09:45:18;24.80;99.90
4701;DHT22;8724;51.272;6.554;2023-06-26T09:47:47;24.90;99.90
4701;DHT22;8724;51.272;6.554;2023-06-26T09:50:23;24.90;99.90
4701;DHT22;8724;51.272;6.554;2023-06-26T09:52:53;24.90;99.90
4701;DHT22;8724;51.272;6.554;2023-06-26T09:55:25;25.00;99.90
4701;DHT22;8724;51.272;6.554;2023-06-26T09:57:56;25.00;99.90
4701;DHT22;8724;51.272;6.554;2023-06-26T10:00:31;24.90;99.90
4701;DHT22;8724;51.272;6.554;2023-06-26T10:03:00;24.90;99.90
4701;DHT22;8724;51.272;6.554;2023-06-26T10:05:29;24.90;99.90
4701;DHT22;8724;51.272;6.554;2023-06-26T10:07:58;24.90;99.90
4701;DHT22;8724;51.272;6.554;2023-06-26T10:10:29;24.90;99.90
4701;DHT22;8724;51.272;6.554;2023-06-26T10:13:00;24.90;99.90
4701;DHT22;8724;51.272;6.554;2023-06-26T10:15:32;24.90;99.90
4701;DHT22;8724;51.272;6.554;2023-06-26T10:18:02;24.90;99.90
4701;DHT22;8724;51.272;6.554;2023-06-26T10:20:31;24.80;99.90
4701;DHT22;8724;51.272;6.554;2023-06-26T10:23:01;24.80;99.90
4701;DHT22;8724;51.272;6.554;2023-06-26T10:25:34;24.90;99.90
4701;DHT22;8724;51.272;6.554;2023-06-26T10:28:03;24.90;99.90
4701;DHT22;8724;51.272;6.554;2023-06-26T10:30:34;24.90;99.90
4701;DHT22;8724;51.272;6.554;2023-06-26T10:33:04;24.80;99.90
4701;DHT22;8724;51.272;6.554;2023-06-26T10:35:42;24.80;99.90
4701;DHT22;8724;51.272;6.554;2023-06-26T10:38:11;24.90;99.90
4701;DHT22;8724;51.272;6.554;2023-06-26T10:40:43;24.90;99.90
4701;DHT22;8724;51.272;6.554;2023-06-26T10:43:13;24.90;99.90
4701;DHT22;8724;51.272;6.554;2023-06-26T10:45:46;24.90;99.90
4701;DHT22;8724;51.272;6.554;2023-06-26T10:48:19;24.90;99.90
4701;DHT22;8724;51.272;6.554;2023-06-26T10:50:48;24.90;99.90
4701;DHT22;8724;51.272;6.554;2023-06-26T10:53:23;24.90;99.90
4701;DHT22;8724;51.272;6.554;2023-06-26T10:56:01;25.00;99.90
4701;DHT22;8724;51.272;6.554;2023-06-26T10:58:34;24.90;99.90
4701;DHT22;8724;51.272;6.554;2023-06-26T11:01:22;24.80;99.90
4701;DHT22;8724;51.272;6.554;2023-06-26T11:04:04;24.80;99.90
4701;DHT22;8724;51.272;6.554;2023-06-26T11:06:34;24.80;99.90
4701;DHT22;8724;51.272;6.554;2023-06-26T11:09:14;24.70;99.90
4701;DHT22;8724;51.272;6.554;2023-06-26T11:11:58;24.70;99.90
4701;DHT22;8724;51.272;6.554;2023-06-26T11:14:31;24.70;99.90
4701;DHT22;8724;51.272;6.554;2023-06-26T11:17:02;24.60;99.90
4701;DHT22;8724;51.272;6.554;2023-06-26T11:19:31;24.70;99.90
4701;DHT22;8724;51.272;6.554;2023-06-26T11:22:03;24.80;99.90
4701;DHT22;8724;51.272;6.554;2023-06-26T11:24:32;24.80;99.90
4701;DHT22;8724;51.272;6.554;2023-06-26T11:27:04;24.80;99.90
4701;DHT22;8724;51.272;6.554;2023-06-26T11:29:33;24.80;99.90
4701;DHT22;8724;51.272;6.554;2023-06-26T11:32:04;24.80;99.90
4701;DHT22;8724;51.272;6.554;2023-06-26T11:34:34;24.80;99.90
4701;DHT22;8724;51.272;6.554;2023-06-26T11:37:05;24.80;99.90
4701;DHT22;8724;51.272;6.554;2023-06-26T11:39:34;24.80;99.90
4701;DHT22;8724;51.272;6.554;2023-06-26T11:42:06;24.80;99.90
4701;DHT22;8724;51.272;6.554;2023-06-26T11:44:40;24.80;99.90
4701;DHT22;8724;51.272;6.554;2023-06-26T11:47:14;24.80;99.90
4701;DHT22;8724;51.272;6.554;2023-06-26T11:49:43;24.70;99.90
4701;DHT22;8724;51.272;6.554;2023-06-26T11:52:13;24.70;99.90
4701;DHT22;8724;51.272;6.554;2023-06-26T11:54:42;24.60;99.90
4701;DHT22;8724;51.272;6.554;2023-06-26T11:57:15;24.60;99.90
4701;DHT22;8724;51.272;6.554;2023-06-26T11:59:44;24.50;99.90
4701;DHT22;8724;51.272;6.554;2023-06-26T12:02:14;24.50;99.90
4701;DHT22;8724;51.272;6.554;2023-06-26T12:04:43;24.60;99.90
4701;DHT22;8724;51.272;6.554;2023-06-26T12:07:13;24.60;99.90
4701;DHT22;8724;51.272;6.554;2023-06-26T12:09:43;24.60;99.90
4701;DHT22;8724;51.272;6.554;2023-06-26T12:12:16;24.70;99.90
4701;DHT22;8724;51.272;6.554;2023-06-26T12:14:45;24.70;99.90
4701;DHT22;8724;51.272;6.554;2023-06-26T12:17:14;24.80;99.90
4701;DHT22;8724;51.272;6.554;2023-06-26T12:19:44;24.80;99.90
4701;DHT22;8724;51.272;6.554;2023-06-26T12:22:15;24.80;99.90
4701;DHT22;8724;51.272;6.554;2023-06-26T12:24:46;24.90;99.90
4701;DHT22;8724;51.272;6.554;2023-06-26T12:27:18;24.90;99.90
4701;DHT22;8724;51.272;6.554;2023-06-26T12:29:51;24.90;99.90
4701;DHT22;8724;51.272;6.554;2023-06-26T12:32:23;24.90;99.90
4701;DHT22;8724;51.272;6.554;2023-06-26T12:34:52;25.00;99.90
4701;DHT22;8724;51.272;6.554;2023-06-26T12:37:21;24.90;99.90
4701;DHT22;8724;51.272;6.554;2023-06-26T12:39:50;24.80;99.90
4701;DHT22;8724;51.272;6.554;2023-06-26T12:42:21;24.70;99.90
4701;DHT22;8724;51.272;6.554;2023-06-26T12:44:51;24.70;99.90
4701;DHT22;8724;51.272;6.554;2023-06-26T12:47:24;24.70;99.90
4701;DHT22;8724;51.272;6.554;2023-06-26T12:49:54;24.80;99.90
4701;DHT22;8724;51.272;6.554;2023-06-26T12:52:24;24.70;99.90
4701;DHT22;8724;51.272;6.554;2023-06-26T12:54:54;24.80;99.90
4701;DHT22;8724;51.272;6.554;2023-06-26T12:57:25;24.80;99.90
4701;DHT22;8724;51.272;6.554;2023-06-26T12:59:54;24.80;99.90
4701;DHT22;8724;51.272;6.554;2023-06-26T13:02:23;24.80;99.90
4701;DHT22;8724;51.272;6.554;2023-06-26T13:04:51;24.80;99.90
4701;DHT22;8724;51.272;6.554;2023-06-26T13:07:20;24.70;99.90
4701;DHT22;8724;51.272;6.554;2023-06-26T13:09:48;24.70;99.90
4701;DHT22;8724;51.272;6.554;2023-06-26T13:12:17;24.70;99.90
4701;DHT22;8724;51.272;6.554;2023-06-26T13:14:47;24.70;99.90
4701;DHT22;8724;51.272;6.554;2023-06-26T13:17:15;24.70;99.90
4701;DHT22;8724;51.272;6.554;2023-06-26T13:19:44;24.80;99.90
4701;DHT22;8724;51.272;6.554;2023-06-26T13:22:12;24.80;99.90
4701;DHT22;8724;51.272;6.554;2023-06-26T13:24:41;24.70;99.90
4701;DHT22;8724;51.272;6.554;2023-06-26T13:27:10;24.70;99.90
4701;DHT22;8724;51.272;6.554;2023-06-26T13:29:38;24.80;99.90
4701;DHT22;8724;51.272;6.554;2023-06-26T13:32:09;24.80;99.90
4701;DHT22;8724;51.272;6.554;2023-06-26T13:34:37;24.80;99.90
4701;DHT22;8724;51.272;6.554;2023-06-26T13:37:06;24.80;99.90
4701;DHT22;8724;51.272;6.554;2023-06-26T13:39:34;24.80;99.90
4701;DHT22;8724;51.272;6.554;2023-06-26T13:42:03;24.80;99.90
4701;DHT22;8724;51.272;6.554;2023-06-26T13:44:32;24.80;99.90
4701;DHT22;8724;51.272;6.554;2023-06-26T13:47:15;24.80;99.90
4701;DHT22;8724;51.272;6.554;2023-06-26T13:49:44;24.70;99.90
4701;DHT22;8724;51.272;6.554;2023-06-26T13:52:12;24.80;99.90
4701;DHT22;8724;51.272;6.554;2023-06-26T13:54:41;24.80;99.90
4701;DHT22;8724;51.272;6.554;2023-06-26T13:57:10;24.80;99.90
4701;DHT22;8724;51.272;6.554;2023-06-26T13:59:39;24.80;99.90
4701;DHT22;8724;51.272;6.554;2023-06-26T14:02:07;24.80;99.90
4701;DHT22;8724;51.272;6.554;2023-06-26T14:04:37;24.80;99.90
4701;DHT22;8724;51.272;6.554;2023-06-26T14:07:06;24.80;99.90
4701;DHT22;8724;51.272;6.554;2023-06-26T14:09:35;24.80;99.90
4701;DHT22;8724;51.272;6.554;2023-06-26T14:12:04;24.80;99.90
4701;DHT22;8724;51.272;6.554;2023-06-26T14:14:33;24.80;99.90
4701;DHT22;8724;51.272;6.554;2023-06-26T14:17:02;24.90;99.90
4701;DHT22;8724;51.272;6.554;2023-06-26T14:19:32;24.90;99.90
4701;DHT22;8724;51.272;6.554;2023-06-26T14:22:02;24.90;99.90
4701;DHT22;8724;51.272;6.554;2023-06-26T14:24:31;24.90;99.90
4701;DHT22;8724;51.272;6.554;2023-06-26T14:26:59;24.90;99.60
4701;DHT22;8724;51.272;6.554;2023-06-26T14:29:28;24.90;99.60
4701;DHT22;8724;51.272;6.554;2023-06-26T14:31:56;24.90;99.90
4701;DHT22;8724;51.272;6.554;2023-06-26T14:34:24;25.00;99.90
4701;DHT22;8724;51.272;6.554;2023-06-26T14:36:53;25.10;99.90
4701;DHT22;8724;51.272;6.554;2023-06-26T14:39:23;25.10;99.90
4701;DHT22;8724;51.272;6.554;2023-06-26T14:41:52;25.10;99.90
4701;DHT22;8724;51.272;6.554;2023-06-26T14:44:21;25.10;99.30
4701;DHT22;8724;51.272;6.554;2023-06-26T14:46:50;25.10;98.90
4701;DHT22;8724;51.272;6.554;2023-06-26T14:49:18;25.10;98.90
4701;DHT22;8724;51.272;6.554;2023-06-26T14:51:49;25.10;98.50
4701;DHT22;8724;51.272;6.554;2023-06-26T14:54:17;25.20;98.30
4701;DHT22;8724;51.272;6.554;2023-06-26T14:56:47;25.20;99.00
4701;DHT22;8724;51.272;6.554;2023-06-26T14:59:15;25.10;98.80
4701;DHT22;8724;51.272;6.554;2023-06-26T15:01:44;25.10;99.30
4701;DHT22;8724;51.272;6.554;2023-06-26T15:04:12;25.10;98.30
4701;DHT22;8724;51.272;6.554;2023-06-26T15:06:41;25.10;99.00
4701;DHT22;8724;51.272;6.554;2023-06-26T15:09:09;25.10;99.70
4701;DHT22;8724;51.272;6.554;2023-06-26T15:11:38;25.20;99.50
4701;DHT22;8724;51.272;6.554;2023-06-26T15:14:08;25.20;99.90
4701;DHT22;8724;51.272;6.554;2023-06-26T15:16:36;25.30;99.90
4701;DHT22;8724;51.272;6.554;2023-06-26T15:19:05;25.40;99.30
4701;DHT22;8724;51.272;6.554;2023-06-26T15:21:33;25.50;97.50
4701;DHT22;8724;51.272;6.554;2023-06-26T15:24:02;25.50;96.90
4701;DHT22;8724;51.272;6.554;2023-06-26T15:26:31;25.40;97.50
4701;DHT22;8724;51.272;6.554;2023-06-26T15:28:59;25.40;97.10
4701;DHT22;8724;51.272;6.554;2023-06-26T15:31:30;25.50;98.20
4701;DHT22;8724;51.272;6.554;2023-06-26T15:33:58;25.50;98.20
4701;DHT22;8724;51.272;6.554;2023-06-26T15:36:27;25.50;98.00
4701;DHT22;8724;51.272;6.554;2023-06-26T15:38:55;25.40;98.30
4701;DHT22;8724;51.272;6.554;2023-06-26T15:41:24;25.30;98.10
4701;DHT22;8724;51.272;6.554;2023-06-26T15:43:53;25.20;97.70
4701;DHT22;8724;51.272;6.554;2023-06-26T15:46:22;25.30;98.00
4701;DHT22;8724;51.272;6.554;2023-06-26T15:48:52;25.30;97.80
4701;DHT22;8724;51.272;6.554;2023-06-26T15:51:20;25.30;98.20
4701;DHT22;8724;51.272;6.554;2023-06-26T15:53:49;25.40;97.30
4701;DHT22;8724;51.272;6.554;2023-06-26T15:56:17;25.40;97.30
4701;DHT22;8724;51.272;6.554;2023-06-26T15:58:46;25.50;97.40
4701;DHT22;8724;51.272;6.554;2023-06-26T16:01:15;25.60;96.70
4701;DHT22;8724;51.272;6.554;2023-06-26T16:03:44;25.60;96.90
4701;DHT22;8724;51.272;6.554;2023-06-26T16:06:14;25.60;97.40
4701;DHT22;8724;51.272;6.554;2023-06-26T16:08:42;25.60;96.90
4701;DHT22;8724;51.272;6.554;2023-06-26T16:11:13;25.60;97.20
4701;DHT22;8724;51.272;6.554;2023-06-26T16:13:41;25.50;96.70
4701;DHT22;8724;51.272;6.554;2023-06-26T16:16:11;25.40;96.70
4701;DHT22;8724;51.272;6.554;2023-06-26T16:18:40;25.50;96.70